Forest Park, Georgia
Current Conditions -  °F | °C
As of 5:52 PM on Thursday 18 Dec 2014 (Local Time) from KATL Reporting Station
Broken Clouds Broken Clouds  
Wind Chill: 52°   Ceiling: 4700
Heat Index: 52°   Visibility: 10mi
Dew Point: 32°   Wind: 8mph
Humidity: 47%   Direction: 330°NNW
Pressure: 30.11"   Gusts: NA
Location:  33.62°N, 84.36°W
Report Text: KATL 182252Z 33007KT 10SM BKN047 BKN110 BKN250 11/00 A3011 RMK AO2 SLP200 T01110000
Loading
Personal Weather Stations






























Interactive Weather Map New forecast layout! Learn more

10-Day Weather Forecast

Advertisements
Track Severe Weather on mobile